createdAt,value
2019-03-08T05:40:45.520Z,0.00
2019-03-08T05:41:45.433Z,0.00
2019-03-08T05:42:45.478Z,0.00
2019-03-08T05:43:45.393Z,0.00
2019-03-08T05:45:45.391Z,0.00
2019-03-08T05:46:45.356Z,0.00
2019-03-08T05:47:45.374Z,0.00
2019-03-08T05:49:45.378Z,0.00
2019-03-08T05:51:45.324Z,0.00
2019-03-08T05:52:45.308Z,0.00
2019-03-08T05:54:45.278Z,0.00
2019-03-08T05:55:45.276Z,0.00
2019-03-08T05:56:45.268Z,0.00
2019-03-08T05:58:45.245Z,0.00
2019-03-08T05:59:45.534Z,0.00
2019-03-08T06:01:45.198Z,0.00
2019-03-08T06:02:45.210Z,0.00
2019-03-08T06:03:45.184Z,0.00
2019-03-08T06:04:45.187Z,0.00
2019-03-08T06:05:45.157Z,0.00
2019-03-08T06:06:45.142Z,0.00
2019-03-08T06:07:45.133Z,0.00
2019-03-08T06:08:45.120Z,0.00
2019-03-08T06:09:45.190Z,0.00
2019-03-08T06:10:45.104Z,0.00
2019-03-08T06:11:45.107Z,5.62
2019-03-08T06:12:45.073Z,5.62
2019-03-08T06:13:45.066Z,5.62
2019-03-08T06:14:45.050Z,5.62
2019-03-08T06:15:45.052Z,5.62
2019-03-08T06:16:45.035Z,11.25
2019-03-08T06:17:45.040Z,11.25
2019-03-08T06:18:45.023Z,5.62
2019-03-08T06:19:45.001Z,11.25
2019-03-08T06:20:45.002Z,11.25
2019-03-08T06:21:44.990Z,11.25
2019-03-08T06:22:45.056Z,16.87
2019-03-08T06:23:44.967Z,16.87
2019-03-08T06:24:44.957Z,16.87
2019-03-08T06:25:44.944Z,16.87
2019-03-08T06:26:44.945Z,16.87
2019-03-08T06:27:44.912Z,22.50
2019-03-08T06:28:44.901Z,22.50
2019-03-08T06:29:44.897Z,22.50
2019-03-08T06:30:44.967Z,22.50
2019-03-08T06:31:44.897Z,22.50
2019-03-08T06:32:44.896Z,28.12
2019-03-08T06:33:44.884Z,22.50
2019-03-08T06:34:44.873Z,22.50
2019-03-08T06:35:44.832Z,28.12
2019-03-08T06:36:44.860Z,28.12
2019-03-08T06:37:44.804Z,33.75
2019-03-08T06:38:44.869Z,39.37
2019-03-08T06:39:44.828Z,39.37
2019-03-08T06:40:44.776Z,33.75
2019-03-08T06:41:44.800Z,33.75
2019-03-08T06:42:44.761Z,28.12
2019-03-08T06:43:44.737Z,22.50
2019-03-08T06:44:44.736Z,22.50
2019-03-08T06:45:44.724Z,28.12
2019-03-08T06:46:44.733Z,39.37
2019-03-08T06:47:44.697Z,56.25
2019-03-08T06:48:44.685Z,61.87
2019-03-08T06:49:44.680Z,61.87
2019-03-08T06:50:44.666Z,61.87
2019-03-08T06:51:44.667Z,61.87
2019-03-08T06:52:44.646Z,56.25
2019-03-08T06:53:44.645Z,50.62
2019-03-08T06:54:44.663Z,45.00
2019-03-08T06:55:44.648Z,50.62
2019-03-08T06:56:44.604Z,56.25
2019-03-08T06:57:44.601Z,56.25
2019-03-08T06:58:44.583Z,56.25
2019-03-08T06:59:44.566Z,56.25
2019-03-08T07:00:44.575Z,50.62
2019-03-08T07:01:44.579Z,45.00
2019-03-08T07:02:44.535Z,45.00
2019-03-08T07:03:44.524Z,50.62
2019-03-08T07:04:45.594Z,56.25
2019-03-08T07:05:44.580Z,56.25
2019-03-08T07:06:45.569Z,61.87
2019-03-08T07:07:44.665Z,67.50
2019-03-08T07:08:44.551Z,73.12
2019-03-08T07:09:44.558Z,67.50
2019-03-08T07:10:44.532Z,61.87
2019-03-08T07:11:44.456Z,67.50
2019-03-08T07:12:44.536Z,61.87
2019-03-08T07:13:44.502Z,56.25
2019-03-08T07:14:44.484Z,45.00
2019-03-08T07:15:44.583Z,45.00
2019-03-08T07:16:44.421Z,50.62
2019-03-08T07:17:44.443Z,45.00
2019-03-08T07:18:44.460Z,33.75
2019-03-08T07:19:44.455Z,33.75
2019-03-08T07:20:44.354Z,33.75
2019-03-08T07:21:44.416Z,45.00
2019-03-08T07:22:44.414Z,50.62
2019-03-08T07:23:45.391Z,67.50
2019-03-08T07:24:44.335Z,67.50
2019-03-08T07:25:51.087Z,56.25
2019-03-08T07:27:09.839Z,61.87
2019-03-08T07:28:09.812Z,67.50
2019-03-08T07:29:09.808Z,67.50
2019-03-08T07:30:11.241Z,56.25
2019-03-08T07:31:09.774Z,56.25
2019-03-08T07:32:10.832Z,61.87
2019-03-08T07:33:09.772Z,61.87
2019-03-08T07:34:11.092Z,67.50
2019-03-08T07:35:09.739Z,73.12
2019-03-08T07:36:09.719Z,73.12
2019-03-08T07:37:11.777Z,67.50
2019-03-08T07:38:09.717Z,61.87
2019-03-08T07:39:09.883Z,61.87
2019-03-08T07:40:09.807Z,61.87
2019-03-08T07:41:09.741Z,56.25
2019-03-08T07:42:09.844Z,56.25
2019-03-08T07:43:09.750Z,56.25
2019-03-08T07:44:09.703Z,50.62
2019-03-08T07:45:17.527Z,56.25
2019-03-08T07:46:34.862Z,56.25
2019-03-08T07:47:34.863Z,50.62
2019-03-08T07:48:34.860Z,45.00
2019-03-08T07:49:35.834Z,45.00
2019-03-08T07:50:34.846Z,45.00
2019-03-08T07:51:34.810Z,56.25
2019-03-08T07:52:34.828Z,45.00
2019-03-08T07:53:34.814Z,50.62
2019-03-08T07:54:34.780Z,56.25
2019-03-08T07:55:34.802Z,50.62
2019-03-08T07:56:34.735Z,61.87
2019-03-08T07:57:34.802Z,61.87
2019-03-08T07:58:34.761Z,67.50
2019-03-08T07:59:34.715Z,78.75
2019-03-08T08:00:37.757Z,118.12
2019-03-08T08:01:34.830Z,151.87
2019-03-08T08:02:34.709Z,191.25
2019-03-08T08:03:34.707Z,253.12
2019-03-08T08:04:34.688Z,292.50
2019-03-08T08:05:34.686Z,320.62
2019-03-08T08:06:34.648Z,331.87
2019-03-08T08:07:34.613Z,331.87
2019-03-08T08:08:34.615Z,337.50
2019-03-08T08:09:34.615Z,348.75
2019-03-08T08:10:34.590Z,360.00
2019-03-08T08:11:34.560Z,371.25
2019-03-08T08:12:34.558Z,376.87
2019-03-08T08:13:35.585Z,393.75
2019-03-08T08:14:39.520Z,405.00
2019-03-08T08:15:35.565Z,399.37
2019-03-08T08:16:35.565Z,416.25
2019-03-08T08:17:34.630Z,438.75
2019-03-08T08:18:34.584Z,444.37
2019-03-08T08:19:34.494Z,438.75
2019-03-08T08:20:34.512Z,450.00
2019-03-08T08:21:34.455Z,466.87
2019-03-08T08:22:34.476Z,461.25
2019-03-08T08:23:34.929Z,461.25
2019-03-08T08:24:34.422Z,466.87
2019-03-08T08:25:37.020Z,478.12
2019-03-08T08:26:34.396Z,489.37
2019-03-08T08:27:34.427Z,495.00
2019-03-08T08:28:34.333Z,495.00
2019-03-08T08:29:35.199Z,489.37
2019-03-08T08:30:34.340Z,483.75
2019-03-08T08:31:34.302Z,478.12
2019-03-08T08:32:34.310Z,478.12
2019-03-08T08:33:34.303Z,472.50
2019-03-08T08:34:34.289Z,466.87
2019-03-08T08:35:34.254Z,466.87
2019-03-08T08:36:34.240Z,466.87
2019-03-08T08:37:34.855Z,466.87
2019-03-08T08:38:34.238Z,472.50
2019-03-08T08:39:34.204Z,466.87
2019-03-08T08:40:34.203Z,466.87
2019-03-08T08:41:34.245Z,472.50
2019-03-08T08:42:34.170Z,472.50
2019-03-08T08:43:34.172Z,472.50
2019-03-08T08:44:34.179Z,472.50
2019-03-08T08:45:34.191Z,466.87
2019-03-08T08:46:34.224Z,416.25
2019-03-08T08:47:34.141Z,410.62
2019-03-08T08:48:34.115Z,393.75
2019-03-08T08:49:34.130Z,388.12
2019-03-08T08:50:35.638Z,315.00
2019-03-08T08:51:34.079Z,298.12
2019-03-08T08:52:35.115Z,275.62
2019-03-08T08:53:34.062Z,264.37
2019-03-08T08:54:34.037Z,258.75
2019-03-08T08:55:34.971Z,247.50
2019-03-08T08:56:34.078Z,253.12
2019-03-08T08:57:34.080Z,270.00
2019-03-08T08:58:34.084Z,320.62
2019-03-08T08:59:34.061Z,416.25
2019-03-08T09:00:34.509Z,461.25
2019-03-08T09:01:34.059Z,433.12
2019-03-08T09:02:34.036Z,405.00
2019-03-08T09:03:34.056Z,371.25
2019-03-08T09:04:34.093Z,365.62
2019-03-08T09:05:34.006Z,388.12
2019-03-08T09:06:34.009Z,405.00
2019-03-08T09:07:34.032Z,393.75
2019-03-08T09:08:33.976Z,360.00
2019-03-08T09:09:33.956Z,354.37
2019-03-08T09:10:33.940Z,354.37
2019-03-08T09:11:33.973Z,360.00
2019-03-08T09:12:33.938Z,365.62
2019-03-08T09:13:33.896Z,376.87
2019-03-08T09:14:33.880Z,388.12
2019-03-08T09:15:33.889Z,405.00
2019-03-08T09:16:33.910Z,421.87
2019-03-08T09:17:33.915Z,433.12
2019-03-08T09:18:33.861Z,433.12
2019-03-08T09:19:33.842Z,427.50
2019-03-08T09:20:34.833Z,427.50
2019-03-08T09:21:34.821Z,405.00
2019-03-08T09:22:33.811Z,331.87
2019-03-08T09:23:33.817Z,298.12
2019-03-08T09:24:33.868Z,292.50
2019-03-08T09:25:33.803Z,275.62
2019-03-08T09:26:33.780Z,270.00
2019-03-08T09:27:33.834Z,236.25
2019-03-08T09:28:33.918Z,180.00
2019-03-08T09:29:40.990Z,140.62
2019-03-08T09:31:00.065Z,174.37
2019-03-08T09:32:00.042Z,202.50
2019-03-08T09:33:00.070Z,247.50
2019-03-08T09:34:00.027Z,270.00
2019-03-08T09:34:59.997Z,354.37
2019-03-08T09:36:00.003Z,365.62
2019-03-08T09:36:59.907Z,343.12
2019-03-08T09:37:59.956Z,360.00
2019-03-08T09:38:59.947Z,405.00
2019-03-08T09:39:59.963Z,405.00
2019-03-08T09:41:00.072Z,376.87
2019-03-08T09:41:59.889Z,337.50
2019-03-08T09:43:00.040Z,393.75
2019-03-08T09:43:59.854Z,455.62
2019-03-08T09:44:59.913Z,495.00
2019-03-08T09:45:59.919Z,511.87
2019-03-08T09:46:59.857Z,511.87
2019-03-08T09:47:59.870Z,472.50
2019-03-08T09:48:59.880Z,410.62
2019-03-08T09:49:59.835Z,360.00
2019-03-08T09:50:59.826Z,337.50
2019-03-08T09:51:59.819Z,320.62
2019-03-08T09:52:59.920Z,315.00
2019-03-08T09:53:59.806Z,326.25
2019-03-08T09:55:00.798Z,331.87
2019-03-08T09:55:59.779Z,337.50
2019-03-08T09:56:59.762Z,348.75
2019-03-08T09:57:59.872Z,360.00
2019-03-08T09:58:59.745Z,365.62
2019-03-08T09:59:59.821Z,376.87
2019-03-08T10:00:59.718Z,388.12
2019-03-08T10:01:59.725Z,388.12
2019-03-08T10:02:59.696Z,393.75
2019-03-08T10:03:59.717Z,388.12
2019-03-08T10:04:59.869Z,376.87
2019-03-08T10:05:59.748Z,365.62
2019-03-08T10:07:00.695Z,360.00
2019-03-08T10:07:59.667Z,348.75
2019-03-08T10:08:59.696Z,337.50
2019-03-08T10:09:59.630Z,343.12
2019-03-08T10:10:59.625Z,337.50
2019-03-08T10:11:59.544Z,315.00
2019-03-08T10:12:59.602Z,292.50
2019-03-08T10:13:59.584Z,264.37
2019-03-08T10:14:59.570Z,264.37
2019-03-08T10:15:59.567Z,264.37
2019-03-08T10:16:59.548Z,264.37
2019-03-08T10:17:59.539Z,264.37
2019-03-08T10:18:59.539Z,264.37
2019-03-08T10:19:59.509Z,258.75
2019-03-08T10:20:59.477Z,258.75
2019-03-08T10:21:59.425Z,258.75
2019-03-08T10:22:59.416Z,258.75
2019-03-08T10:23:59.392Z,258.75
2019-03-08T10:24:59.377Z,253.12
2019-03-08T10:25:59.376Z,253.12
2019-03-08T10:26:59.412Z,253.12
2019-03-08T10:27:59.361Z,258.75
2019-03-08T10:28:59.348Z,258.75
2019-03-08T10:29:59.325Z,264.37
2019-03-08T10:31:04.223Z,286.87
2019-03-08T10:31:59.305Z,348.75
2019-03-08T10:32:59.306Z,326.25
2019-03-08T10:33:59.275Z,303.75
2019-03-08T10:34:59.265Z,298.12
2019-03-08T10:35:59.258Z,337.50
2019-03-08T10:36:59.262Z,433.12
2019-03-08T10:37:59.236Z,523.12
2019-03-08T10:38:59.239Z,528.75
2019-03-08T10:39:59.232Z,472.50
2019-03-08T10:40:59.203Z,523.12
2019-03-08T10:41:59.277Z,590.62
2019-03-08T10:42:59.212Z,556.87
2019-03-08T10:44:08.538Z,596.25
2019-03-08T10:45:25.100Z,658.12
2019-03-08T10:46:25.159Z,663.75
2019-03-08T10:47:25.067Z,596.25
2019-03-08T10:48:25.142Z,573.75
2019-03-08T10:49:25.145Z,495.00
2019-03-08T10:50:25.192Z,455.62
2019-03-08T10:51:25.125Z,405.00
2019-03-08T10:52:25.071Z,371.25
2019-03-08T10:53:25.013Z,365.62
2019-03-08T10:54:25.003Z,371.25
2019-03-08T10:55:25.087Z,388.12
2019-03-08T10:56:24.991Z,444.37
2019-03-08T10:57:25.029Z,489.37
2019-03-08T10:58:24.955Z,540.00
2019-03-08T10:59:25.005Z,601.87
2019-03-08T11:00:25.002Z,663.75
2019-03-08T11:01:24.941Z,736.87
2019-03-08T11:02:25.028Z,753.75
2019-03-08T11:03:24.895Z,680.62
2019-03-08T11:04:24.884Z,601.87
2019-03-08T11:05:24.863Z,556.87
2019-03-08T11:06:24.877Z,483.75
2019-03-08T11:07:24.880Z,438.75
2019-03-08T11:08:29.706Z,433.12
2019-03-08T11:09:24.824Z,489.37
2019-03-08T11:10:24.914Z,511.87
2019-03-08T11:11:24.807Z,506.25
2019-03-08T11:12:24.817Z,478.12
2019-03-08T11:13:24.814Z,483.75
2019-03-08T11:14:26.139Z,495.00
2019-03-08T11:15:27.155Z,483.75
2019-03-08T11:16:25.069Z,489.37
2019-03-08T11:17:24.738Z,495.00
2019-03-08T11:18:24.757Z,478.12
2019-03-08T11:19:24.720Z,455.62
2019-03-08T11:20:24.721Z,416.25
2019-03-08T11:21:24.697Z,405.00
2019-03-08T11:22:24.695Z,427.50
2019-03-08T11:23:24.674Z,416.25
2019-03-08T11:24:24.672Z,399.37
2019-03-08T11:25:24.656Z,421.87
2019-03-08T11:26:24.675Z,450.00
2019-03-08T11:27:24.656Z,461.25
2019-03-08T11:28:24.664Z,466.87
2019-03-08T11:29:24.610Z,500.62
2019-03-08T11:30:24.598Z,523.12
2019-03-08T11:31:24.624Z,551.25
2019-03-08T11:32:24.579Z,568.12
2019-03-08T11:33:24.724Z,562.50
2019-03-08T11:34:25.467Z,534.37
2019-03-08T11:35:24.562Z,500.62
2019-03-08T11:36:24.584Z,461.25
2019-03-08T11:37:24.548Z,427.50
2019-03-08T11:38:24.510Z,388.12
2019-03-08T11:39:24.503Z,360.00
2019-03-08T11:40:24.488Z,371.25
2019-03-08T11:41:24.497Z,410.62
2019-03-08T11:42:24.479Z,455.62
2019-03-08T11:43:24.461Z,500.62
2019-03-08T11:44:24.953Z,528.75
2019-03-08T11:45:30.700Z,556.87
2019-03-08T11:46:50.205Z,590.62
2019-03-08T11:47:50.197Z,562.50
2019-03-08T11:48:50.193Z,511.87
2019-03-08T11:49:50.182Z,489.37
2019-03-08T11:50:50.205Z,483.75
2019-03-08T11:51:50.198Z,500.62
2019-03-08T11:52:50.182Z,466.87
2019-03-08T11:53:56.221Z,438.75
2019-03-08T11:55:15.754Z,444.37
2019-03-08T11:56:15.757Z,461.25
2019-03-08T11:57:15.744Z,472.50
2019-03-08T11:58:15.731Z,455.62
2019-03-08T11:59:15.705Z,433.12
2019-03-08T12:00:15.710Z,388.12
2019-03-08T12:01:15.702Z,376.87
2019-03-08T12:02:15.689Z,371.25
2019-03-08T12:03:15.697Z,354.37
2019-03-08T12:04:15.663Z,343.12
2019-03-08T12:05:15.665Z,337.50
2019-03-08T12:06:15.652Z,360.00
2019-03-08T12:07:15.639Z,371.25
2019-03-08T12:08:15.628Z,376.87
2019-03-08T12:09:15.633Z,399.37
2019-03-08T12:10:15.585Z,388.12
2019-03-08T12:11:16.545Z,388.12
2019-03-08T12:12:15.560Z,427.50
2019-03-08T12:13:15.564Z,461.25
2019-03-08T12:14:15.654Z,466.87
2019-03-08T12:15:21.358Z,528.75
2019-03-08T12:16:15.575Z,579.37
2019-03-08T12:17:15.506Z,568.12
2019-03-08T12:18:15.521Z,556.87
2019-03-08T12:19:15.515Z,573.75
2019-03-08T12:20:15.483Z,596.25
2019-03-08T12:21:15.472Z,579.37
2019-03-08T12:22:15.456Z,545.62
2019-03-08T12:23:15.450Z,534.37
2019-03-08T12:24:15.505Z,551.25
2019-03-08T12:25:15.453Z,528.75
2019-03-08T12:26:15.414Z,461.25
2019-03-08T12:27:15.410Z,399.37
2019-03-08T12:28:15.434Z,365.62
2019-03-08T12:29:15.379Z,371.25
2019-03-08T12:30:15.422Z,405.00
2019-03-08T12:31:15.360Z,455.62
2019-03-08T12:32:15.370Z,540.00
2019-03-08T12:33:15.340Z,630.00
2019-03-08T12:34:15.410Z,641.25
2019-03-08T12:35:15.319Z,613.12
2019-03-08T12:36:15.335Z,579.37
2019-03-08T12:37:15.442Z,562.50
2019-03-08T12:38:15.288Z,545.62
2019-03-08T12:39:15.295Z,540.00
2019-03-08T12:40:15.268Z,551.25
2019-03-08T12:41:15.245Z,596.25
2019-03-08T12:42:15.257Z,641.25
2019-03-08T12:43:15.263Z,680.62
2019-03-08T12:44:15.217Z,663.75
2019-03-08T12:45:15.211Z,596.25
2019-03-08T12:46:15.204Z,562.50
2019-03-08T12:47:15.187Z,551.25
2019-03-08T12:48:23.723Z,556.87
2019-03-08T12:49:40.953Z,523.12
2019-03-08T12:50:40.941Z,466.87
2019-03-08T12:51:40.925Z,433.12
2019-03-08T12:52:41.002Z,421.87
2019-03-08T12:53:40.902Z,410.62
2019-03-08T12:54:40.905Z,433.12
2019-03-08T12:55:40.892Z,461.25
2019-03-08T12:56:40.871Z,489.37
2019-03-08T12:57:40.860Z,495.00
2019-03-08T12:58:40.873Z,461.25
2019-03-08T12:59:40.854Z,472.50
2019-03-08T13:00:40.831Z,455.62
2019-03-08T13:01:40.833Z,416.25
2019-03-08T13:02:40.804Z,399.37
2019-03-08T13:03:40.804Z,416.25
2019-03-08T13:04:40.792Z,416.25
2019-03-08T13:05:40.779Z,393.75
2019-03-08T13:06:40.757Z,371.25
2019-03-08T13:07:40.761Z,376.87
2019-03-08T13:08:40.811Z,427.50
2019-03-08T13:09:40.741Z,495.00
2019-03-08T13:10:40.730Z,489.37
2019-03-08T13:11:40.714Z,450.00
2019-03-08T13:12:40.696Z,461.25
2019-03-08T13:13:40.690Z,466.87
2019-03-08T13:14:40.686Z,433.12
2019-03-08T13:15:42.273Z,405.00
2019-03-08T13:16:40.660Z,371.25
2019-03-08T13:17:40.664Z,360.00
2019-03-08T13:18:40.633Z,371.25
2019-03-08T13:19:40.620Z,376.87
2019-03-08T13:20:40.606Z,382.50
2019-03-08T13:21:40.597Z,354.37
2019-03-08T13:22:40.587Z,348.75
2019-03-08T13:23:40.573Z,343.12
2019-03-08T13:24:40.569Z,348.75
2019-03-08T13:25:42.090Z,399.37
2019-03-08T13:26:40.560Z,466.87
2019-03-08T13:27:40.539Z,540.00
2019-03-08T13:28:40.526Z,573.75
2019-03-08T13:29:40.512Z,562.50
2019-03-08T13:30:40.532Z,568.12
2019-03-08T13:31:40.491Z,562.50
2019-03-08T13:32:40.505Z,528.75
2019-03-08T13:33:40.552Z,495.00
2019-03-08T13:34:40.452Z,455.62
2019-03-08T13:35:40.466Z,421.87
2019-03-08T13:36:40.437Z,382.50
2019-03-08T13:37:40.428Z,371.25
2019-03-08T13:38:40.406Z,376.87
2019-03-08T13:39:40.401Z,382.50
2019-03-08T13:40:40.403Z,376.87
2019-03-08T13:41:40.380Z,376.87
2019-03-08T13:42:40.375Z,376.87
2019-03-08T13:43:40.535Z,382.50
2019-03-08T13:44:40.360Z,376.87
2019-03-08T13:45:40.371Z,365.62
2019-03-08T13:46:40.337Z,348.75
2019-03-08T13:47:40.338Z,354.37
2019-03-08T13:48:40.304Z,354.37
2019-03-08T13:49:40.283Z,376.87
2019-03-08T13:50:40.367Z,399.37
2019-03-08T13:51:40.269Z,405.00
2019-03-08T13:52:40.258Z,427.50
2019-03-08T13:53:40.262Z,416.25
2019-03-08T13:54:40.234Z,438.75
2019-03-08T13:55:40.228Z,466.87
2019-03-08T13:56:40.205Z,534.37
2019-03-08T13:57:40.214Z,590.62
2019-03-08T13:58:40.227Z,613.12
2019-03-08T13:59:40.201Z,641.25
2019-03-08T14:00:40.168Z,618.75
2019-03-08T14:01:40.171Z,540.00
2019-03-08T14:02:40.170Z,444.37
2019-03-08T14:03:40.147Z,371.25
2019-03-08T14:04:40.126Z,348.75
2019-03-08T14:05:40.159Z,343.12
2019-03-08T14:06:40.101Z,337.50
2019-03-08T14:07:40.144Z,348.75
2019-03-08T14:08:40.431Z,360.00
2019-03-08T14:09:40.071Z,337.50
2019-03-08T14:10:40.061Z,320.62
2019-03-08T14:11:40.054Z,309.37
2019-03-08T14:12:40.176Z,348.75
2019-03-08T14:13:40.019Z,399.37
2019-03-08T14:14:40.008Z,416.25
2019-03-08T14:15:40.003Z,444.37
2019-03-08T14:16:39.998Z,461.25
2019-03-08T14:17:39.992Z,427.50
2019-03-08T14:18:42.127Z,405.00
2019-03-08T14:19:39.954Z,427.50
2019-03-08T14:20:39.952Z,444.37
2019-03-08T14:21:39.945Z,421.87
2019-03-08T14:22:39.947Z,427.50
2019-03-08T14:23:39.913Z,450.00
2019-03-08T14:24:39.904Z,466.87
2019-03-08T14:25:39.901Z,478.12
2019-03-08T14:26:39.879Z,478.12
2019-03-08T14:27:39.874Z,478.12
2019-03-08T14:28:39.855Z,478.12
2019-03-08T14:29:40.983Z,450.00
2019-03-08T14:30:39.849Z,405.00
2019-03-08T14:31:39.829Z,371.25
2019-03-08T14:32:39.823Z,343.12
2019-03-08T14:33:39.930Z,343.12
2019-03-08T14:34:39.806Z,354.37
2019-03-08T14:35:39.783Z,376.87
2019-03-08T14:36:43.260Z,376.87
2019-03-08T14:37:39.766Z,365.62
2019-03-08T14:38:39.767Z,354.37
2019-03-08T14:39:40.457Z,348.75
2019-03-08T14:40:39.726Z,354.37
2019-03-08T14:41:39.818Z,360.00
2019-03-08T14:42:40.500Z,354.37
2019-03-08T14:43:39.695Z,337.50
2019-03-08T14:44:39.684Z,298.12
2019-03-08T14:45:40.608Z,275.62
2019-03-08T14:46:39.659Z,275.62
2019-03-08T14:47:39.651Z,270.00
2019-03-08T14:48:42.576Z,253.12
2019-03-08T14:50:04.709Z,236.25
2019-03-08T14:51:04.727Z,241.87
2019-03-08T14:52:04.705Z,241.87
2019-03-08T14:53:04.673Z,247.50
2019-03-08T14:54:06.046Z,241.87
2019-03-08T14:55:04.656Z,230.62
2019-03-08T14:56:04.648Z,219.37
2019-03-08T14:57:04.637Z,236.25
2019-03-08T14:58:04.622Z,258.75
2019-03-08T14:59:04.620Z,292.50
2019-03-08T15:00:04.603Z,315.00
2019-03-08T15:01:06.202Z,315.00
2019-03-08T15:02:04.592Z,292.50
2019-03-08T15:03:04.585Z,270.00
2019-03-08T15:04:04.578Z,253.12
2019-03-08T15:05:11.253Z,230.62
2019-03-08T15:06:29.720Z,225.00
2019-03-08T15:07:29.717Z,230.62
2019-03-08T15:08:29.740Z,230.62
2019-03-08T15:09:30.724Z,213.75
2019-03-08T15:10:38.783Z,185.62
